createdAt,value
2023-03-10T00:00:04.762Z,2.62
2023-03-10T00:02:34.950Z,2.55
2023-03-10T00:05:05.863Z,2.60
2023-03-10T00:07:33.873Z,2.53
2023-03-10T00:10:01.960Z,2.56
2023-03-10T00:12:29.865Z,2.66
2023-03-10T00:14:57.628Z,2.64
2023-03-10T00:17:26.911Z,2.63
2023-03-10T00:19:54.871Z,2.57
2023-03-10T00:22:22.768Z,2.67
2023-03-10T00:24:50.634Z,2.67
2023-03-10T00:27:18.529Z,2.75
2023-03-10T00:29:46.349Z,2.38
2023-03-10T00:32:14.215Z,2.75
2023-03-10T00:34:43.471Z,2.71
2023-03-10T00:37:11.357Z,2.67
2023-03-10T00:39:39.510Z,2.76
2023-03-10T00:42:07.614Z,2.78
2023-03-10T00:44:35.925Z,2.70
2023-03-10T00:47:03.833Z,2.74
2023-03-10T00:49:31.835Z,2.50
2023-03-10T00:52:00.946Z,2.01
2023-03-10T00:54:29.051Z,2.71
2023-03-10T00:56:57.123Z,2.78
2023-03-10T00:59:25.174Z,2.72
2023-03-10T01:01:53.143Z,2.54
2023-03-10T01:04:21.094Z,2.81
2023-03-10T01:06:49.275Z,2.69
2023-03-10T01:09:19.150Z,2.88
2023-03-10T01:11:47.409Z,2.52
2023-03-10T01:14:17.217Z,2.88
2023-03-10T01:16:45.443Z,2.96
2023-03-10T01:19:13.388Z,2.92
2023-03-10T01:21:41.469Z,2.95
2023-03-10T01:24:15.022Z,2.99
2023-03-10T01:26:45.448Z,2.95
2023-03-10T01:29:13.557Z,2.90
2023-03-10T01:31:42.453Z,2.86
2023-03-10T01:34:10.398Z,2.84
2023-03-10T01:36:38.226Z,2.78
2023-03-10T01:39:07.145Z,2.84
2023-03-10T01:41:39.399Z,2.84
2023-03-10T01:44:16.074Z,2.87
2023-03-10T01:46:51.743Z,2.78
2023-03-10T01:49:40.331Z,2.92
2023-03-10T01:52:11.947Z,2.91
2023-03-10T01:54:46.669Z,2.91
2023-03-10T01:57:16.355Z,2.82
2023-03-10T01:59:46.517Z,3.01
2023-03-10T02:02:17.167Z,3.08
2023-03-10T02:04:48.668Z,2.76
2023-03-10T02:07:26.700Z,2.71
2023-03-10T02:09:56.595Z,2.96
2023-03-10T02:12:24.687Z,2.96
2023-03-10T02:14:54.842Z,2.95
2023-03-10T02:17:24.125Z,2.97
2023-03-10T02:20:09.963Z,2.95
2023-03-10T02:22:39.005Z,2.70
2023-03-10T02:25:19.525Z,3.01
2023-03-10T02:27:48.935Z,3.28
2023-03-10T02:30:21.633Z,3.22
2023-03-10T02:32:54.463Z,3.23
2023-03-10T02:35:23.927Z,3.29
2023-03-10T02:37:57.489Z,3.03
2023-03-10T02:40:33.793Z,3.23
2023-03-10T02:43:14.880Z,3.25
2023-03-10T02:45:46.987Z,3.33
2023-03-10T02:48:19.840Z,3.15
2023-03-10T02:50:49.097Z,3.40
2023-03-10T02:53:18.823Z,3.35
2023-03-10T02:55:49.458Z,3.46
2023-03-10T02:58:19.701Z,3.48
2023-03-10T03:00:48.139Z,3.52
2023-03-10T03:03:17.477Z,3.51
2023-03-10T03:05:46.345Z,3.66
2023-03-10T03:08:15.093Z,3.73
2023-03-10T03:10:43.671Z,3.72
2023-03-10T03:13:12.318Z,3.80
2023-03-10T03:15:42.153Z,4.19
2023-03-10T03:18:10.387Z,4.39
2023-03-10T03:20:41.201Z,4.92
2023-03-10T03:23:10.343Z,5.98
2023-03-10T03:25:41.191Z,6.37
2023-03-10T03:28:13.918Z,6.89
2023-03-10T03:30:46.775Z,6.50
2023-03-10T03:33:15.131Z,6.94
2023-03-10T03:35:44.961Z,7.05
2023-03-10T03:38:14.362Z,7.22
2023-03-10T03:40:42.403Z,7.21
2023-03-10T03:43:13.231Z,7.15
2023-03-10T03:45:41.941Z,7.32
2023-03-10T03:48:13.952Z,7.32
2023-03-10T03:50:42.741Z,7.48
2023-03-10T03:53:20.195Z,7.43
2023-03-10T03:55:48.266Z,7.51
2023-03-10T03:58:16.278Z,7.50
2023-03-10T04:00:44.393Z,7.68
2023-03-10T04:03:13.677Z,7.71
2023-03-10T04:05:41.750Z,7.63
2023-03-10T04:08:09.894Z,7.82
2023-03-10T04:10:37.723Z,7.76
2023-03-10T04:13:05.858Z,7.86
2023-03-10T04:15:33.774Z,7.67
2023-03-10T04:18:01.712Z,7.80
2023-03-10T04:20:31.376Z,7.78
2023-03-10T04:23:02.021Z,7.37
2023-03-10T04:25:33.103Z,7.67
2023-03-10T04:28:01.791Z,7.72
2023-03-10T04:30:30.168Z,7.73
2023-03-10T04:33:02.674Z,7.68
2023-03-10T04:35:35.028Z,7.25
2023-03-10T04:38:04.015Z,7.68
2023-03-10T04:40:32.337Z,7.74
2023-03-10T04:43:00.218Z,7.64
2023-03-10T04:45:28.828Z,7.00
2023-03-10T04:47:58.018Z,7.69
2023-03-10T04:50:26.312Z,7.43
2023-03-10T04:52:57.015Z,7.71
2023-03-10T04:55:29.116Z,7.72
2023-03-10T04:57:58.718Z,7.65
2023-03-10T05:00:27.027Z,7.65
2023-03-10T05:02:54.997Z,7.25
2023-03-10T05:05:23.067Z,6.86
2023-03-10T05:07:50.946Z,7.40
2023-03-10T05:10:22.146Z,7.39
2023-03-10T05:12:50.009Z,7.12
2023-03-10T05:15:18.399Z,7.45
2023-03-10T05:17:48.846Z,7.40
2023-03-10T05:20:19.077Z,7.27
2023-03-10T05:22:46.916Z,7.09
2023-03-10T05:25:14.845Z,6.72
2023-03-10T05:27:44.248Z,7.17
2023-03-10T05:30:15.468Z,6.93
2023-03-10T05:32:46.033Z,6.74
2023-03-10T05:35:15.017Z,6.90
2023-03-10T05:37:45.357Z,7.19
2023-03-10T05:40:16.086Z,6.98
2023-03-10T05:42:46.508Z,7.13
2023-03-10T05:45:14.949Z,7.01
2023-03-10T05:47:46.516Z,6.91
2023-03-10T05:50:16.637Z,7.07
2023-03-10T05:52:45.872Z,7.02
2023-03-10T05:55:17.679Z,6.86
2023-03-10T05:57:48.538Z,6.63
2023-03-10T06:00:17.231Z,6.90
2023-03-10T06:02:55.846Z,6.80
2023-03-10T06:05:23.766Z,6.85
2023-03-10T06:07:52.420Z,6.82
2023-03-10T06:10:20.440Z,6.75
2023-03-10T06:12:49.572Z,6.73
2023-03-10T06:15:17.479Z,6.82
2023-03-10T06:17:45.318Z,6.74
2023-03-10T06:20:13.600Z,6.84
2023-03-10T06:22:41.550Z,6.99
2023-03-10T06:25:10.260Z,6.90
2023-03-10T06:27:38.110Z,6.80
2023-03-10T06:30:08.734Z,6.89
2023-03-10T06:32:36.638Z,6.88
2023-03-10T06:35:05.407Z,6.82
2023-03-10T06:37:33.432Z,6.98
2023-03-10T06:40:01.303Z,6.82
2023-03-10T06:42:29.146Z,6.87
2023-03-10T06:44:57.054Z,6.80
2023-03-10T06:47:26.323Z,6.85
2023-03-10T06:49:54.741Z,6.84
2023-03-10T06:52:22.858Z,6.78
2023-03-10T06:54:50.759Z,6.74
2023-03-10T06:57:20.968Z,6.72
2023-03-10T06:59:49.048Z,6.51
2023-03-10T07:02:16.790Z,6.78
2023-03-10T07:04:46.010Z,6.82
2023-03-10T07:07:14.509Z,6.81
2023-03-10T07:09:42.441Z,6.87
2023-03-10T07:12:10.480Z,6.81
2023-03-10T07:14:38.347Z,6.76
2023-03-10T07:17:06.410Z,6.99
2023-03-10T07:19:34.266Z,6.84
2023-03-10T07:22:03.476Z,6.61
2023-03-10T07:24:31.391Z,6.71
2023-03-10T07:27:00.941Z,6.78
2023-03-10T07:29:29.401Z,6.71
2023-03-10T07:31:57.275Z,6.55
2023-03-10T07:34:25.104Z,6.86
2023-03-10T07:36:52.923Z,6.86
2023-03-10T07:39:22.350Z,6.79
2023-03-10T07:41:50.173Z,6.91
2023-03-10T07:44:18.126Z,6.92
2023-03-10T07:46:45.945Z,6.74
2023-03-10T07:49:13.860Z,6.92
2023-03-10T07:51:41.672Z,6.93
2023-03-10T07:54:10.326Z,7.06
2023-03-10T07:56:39.590Z,7.07
2023-03-10T07:59:07.360Z,6.60
2023-03-10T08:01:35.552Z,7.03
2023-03-10T08:04:03.548Z,7.15
2023-03-10T08:06:32.749Z,7.10
2023-03-10T08:09:00.592Z,7.02
2023-03-10T08:11:28.500Z,7.12
2023-03-10T08:13:57.875Z,7.13
2023-03-10T08:16:26.442Z,7.15
2023-03-10T08:18:54.694Z,7.15
2023-03-10T08:21:23.279Z,7.05
2023-03-10T08:23:51.134Z,7.36
2023-03-10T08:26:19.857Z,7.33
2023-03-10T08:28:48.685Z,7.40
2023-03-10T08:31:20.431Z,7.42
2023-03-10T08:33:49.235Z,7.42
2023-03-10T08:36:19.027Z,7.12
2023-03-10T08:38:47.769Z,7.51
2023-03-10T08:41:18.134Z,7.43
2023-03-10T08:43:48.992Z,7.30
2023-03-10T08:46:19.751Z,7.34
2023-03-10T08:48:48.240Z,7.20
2023-03-10T08:51:18.869Z,7.26
2023-03-10T08:53:48.652Z,7.20
2023-03-10T08:56:17.858Z,7.09
2023-03-10T08:58:45.957Z,7.18
2023-03-10T09:01:15.439Z,7.23
2023-03-10T09:03:45.917Z,7.46
2023-03-10T09:06:14.324Z,7.56
2023-03-10T09:08:42.285Z,7.43
2023-03-10T09:11:15.346Z,7.25
2023-03-10T09:13:43.176Z,7.23
2023-03-10T09:16:11.612Z,7.18
2023-03-10T09:18:39.578Z,7.32
2023-03-10T09:21:08.844Z,7.24
2023-03-10T09:23:36.641Z,7.31
2023-03-10T09:26:04.536Z,7.18
2023-03-10T09:28:32.598Z,7.26
2023-03-10T09:31:00.451Z,7.27
2023-03-10T09:33:28.266Z,7.36
2023-03-10T09:36:06.342Z,7.40
2023-03-10T09:38:36.622Z,7.46
2023-03-10T09:41:23.293Z,7.01
2023-03-10T09:44:00.173Z,7.60
2023-03-10T09:46:39.814Z,7.61
2023-03-10T09:49:16.887Z,7.71
2023-03-10T09:51:49.279Z,7.52
2023-03-10T09:54:39.108Z,7.56
2023-03-10T09:57:16.671Z,7.36
2023-03-10T09:59:47.824Z,7.73
2023-03-10T10:02:21.282Z,7.70
2023-03-10T10:04:53.264Z,7.71
2023-03-10T10:07:23.258Z,7.55
2023-03-10T10:09:59.130Z,7.63
2023-03-10T10:12:28.188Z,7.32
2023-03-10T10:14:58.814Z,7.45
2023-03-10T10:17:52.255Z,7.51
2023-03-10T10:20:26.647Z,7.16
2023-03-10T10:22:54.506Z,7.46
2023-03-10T10:25:25.761Z,6.07
2023-03-10T10:27:55.775Z,7.42
2023-03-10T10:30:29.891Z,7.62
2023-03-10T10:32:59.371Z,7.59
2023-03-10T10:35:29.712Z,7.73
2023-03-10T10:38:01.376Z,7.61
2023-03-10T10:40:34.370Z,7.49
2023-03-10T10:43:05.748Z,7.53
2023-03-10T10:45:35.612Z,7.61
2023-03-10T10:48:04.360Z,7.67
2023-03-10T10:50:33.630Z,7.66
2023-03-10T10:53:18.709Z,7.71
2023-03-10T10:55:59.599Z,7.85
2023-03-10T10:58:31.541Z,7.36
2023-03-10T11:01:01.335Z,7.93
2023-03-10T11:03:33.268Z,7.63
2023-03-10T11:06:02.933Z,7.96
2023-03-10T11:08:34.986Z,8.09
2023-03-10T11:11:15.912Z,8.40
2023-03-10T11:14:13.754Z,8.75
2023-03-10T11:16:51.144Z,8.67
2023-03-10T11:19:32.568Z,8.87
2023-03-10T11:22:06.398Z,8.57
2023-03-10T11:24:40.773Z,8.70
2023-03-10T11:27:16.605Z,8.46
2023-03-10T11:29:57.692Z,8.66
2023-03-10T11:32:32.037Z,8.74
2023-03-10T11:35:00.938Z,8.92
2023-03-10T11:37:36.132Z,8.41
2023-03-10T11:40:19.731Z,8.51
2023-03-10T11:42:58.829Z,8.24
2023-03-10T11:45:31.970Z,8.50
2023-03-10T11:48:11.358Z,8.56
2023-03-10T11:50:49.012Z,8.11
2023-03-10T11:53:22.919Z,8.13
2023-03-10T11:55:52.238Z,8.16
2023-03-10T11:58:27.978Z,8.10
2023-03-10T12:00:56.773Z,7.81
2023-03-10T12:03:43.338Z,7.65
2023-03-10T12:06:15.653Z,8.16
2023-03-10T12:08:43.815Z,8.22
2023-03-10T12:11:18.037Z,8.26
2023-03-10T12:13:49.991Z,8.04
2023-03-10T12:16:21.713Z,7.76
2023-03-10T12:18:49.839Z,7.96
2023-03-10T12:21:22.345Z,8.00
2023-03-10T12:23:52.176Z,7.94
2023-03-10T12:26:57.965Z,7.95
2023-03-10T12:29:45.973Z,7.31
2023-03-10T12:32:43.694Z,7.92
2023-03-10T12:35:44.606Z,7.96
2023-03-10T12:38:40.886Z,7.87
2023-03-10T12:41:09.588Z,8.04
2023-03-10T12:44:07.967Z,8.24
2023-03-10T12:46:44.718Z,8.16
2023-03-10T12:49:26.572Z,8.16
2023-03-10T12:52:00.775Z,8.26
2023-03-10T12:54:42.768Z,7.92
2023-03-10T12:57:17.045Z,8.08
2023-03-10T12:59:52.953Z,7.98
2023-03-10T13:02:33.577Z,7.91
2023-03-10T13:05:05.023Z,7.65
2023-03-10T13:07:33.226Z,7.34
2023-03-10T13:10:03.545Z,7.46
2023-03-10T13:12:38.552Z,7.73
2023-03-10T13:15:08.899Z,7.79
2023-03-10T13:17:38.082Z,7.69
2023-03-10T13:20:09.463Z,7.95
2023-03-10T13:22:37.297Z,7.57
2023-03-10T13:25:08.315Z,7.48
2023-03-10T13:27:37.149Z,7.67
2023-03-10T13:30:13.437Z,7.84
2023-03-10T13:32:44.105Z,7.65
2023-03-10T13:35:24.878Z,7.53
2023-03-10T13:38:07.658Z,7.26
2023-03-10T13:40:36.486Z,7.19
2023-03-10T13:43:07.275Z,7.50
2023-03-10T13:45:35.368Z,7.51
2023-03-10T13:48:07.087Z,7.81
2023-03-10T13:50:35.227Z,7.91
2023-03-10T13:53:04.733Z,8.07
2023-03-10T13:55:41.586Z,8.37
2023-03-10T13:58:13.893Z,8.57
2023-03-10T14:00:47.410Z,7.79
2023-03-10T14:03:17.103Z,8.03
2023-03-10T14:05:48.178Z,8.21
2023-03-10T14:08:22.886Z,7.93
2023-03-10T14:10:51.363Z,8.24
2023-03-10T14:13:42.917Z,8.55
2023-03-10T14:16:11.754Z,8.86
2023-03-10T14:18:43.084Z,8.81
2023-03-10T14:21:30.201Z,8.85
2023-03-10T14:24:07.431Z,8.71
2023-03-10T14:26:36.278Z,8.57
2023-03-10T14:29:07.593Z,8.53
2023-03-10T14:31:35.857Z,8.54
2023-03-10T14:34:05.733Z,8.25
2023-03-10T14:36:34.079Z,8.16
2023-03-10T14:39:02.687Z,8.14
2023-03-10T14:41:32.148Z,8.19
2023-03-10T14:44:01.131Z,8.21
2023-03-10T14:46:29.665Z,8.15
2023-03-10T14:48:57.753Z,8.12
2023-03-10T14:51:35.652Z,7.89
2023-03-10T14:54:04.544Z,7.43
2023-03-10T14:56:34.040Z,7.36
2023-03-10T14:59:02.851Z,7.29
2023-03-10T15:01:31.919Z,7.48
2023-03-10T15:03:59.814Z,7.61
2023-03-10T15:06:29.053Z,7.32
2023-03-10T15:08:56.918Z,6.97
2023-03-10T15:11:36.569Z,7.29
2023-03-10T15:14:11.494Z,7.46
2023-03-10T15:16:39.377Z,7.45
2023-03-10T15:19:07.346Z,7.42
2023-03-10T15:21:36.529Z,7.56
2023-03-10T15:24:07.532Z,7.57
2023-03-10T15:26:35.360Z,7.25
2023-03-10T15:29:03.171Z,7.04
2023-03-10T15:31:31.033Z,7.13
2023-03-10T15:33:58.943Z,6.89
2023-03-10T15:36:26.749Z,6.94
2023-03-10T15:38:55.917Z,6.76
2023-03-10T15:41:23.742Z,6.92
2023-03-10T15:43:51.555Z,6.55
2023-03-10T15:46:20.433Z,6.27
2023-03-10T15:48:48.421Z,6.69
2023-03-10T15:51:17.956Z,6.65
2023-03-10T15:53:46.161Z,6.72
2023-03-10T15:56:16.193Z,6.90
2023-03-10T15:58:44.072Z,6.89
2023-03-10T16:01:16.282Z,7.02
2023-03-10T16:03:44.636Z,6.96
2023-03-10T16:06:13.875Z,6.32
2023-03-10T16:08:41.789Z,6.41
2023-03-10T16:11:18.805Z,6.40
2023-03-10T16:13:49.381Z,6.43
2023-03-10T16:16:19.308Z,5.80
2023-03-10T16:18:47.851Z,6.44
2023-03-10T16:21:17.928Z,6.44
2023-03-10T16:23:46.129Z,6.46
2023-03-10T16:26:15.716Z,6.28
2023-03-10T16:28:47.171Z,6.48
2023-03-10T16:31:17.376Z,6.46
2023-03-10T16:33:46.515Z,6.59
2023-03-10T16:36:18.136Z,6.56
2023-03-10T16:38:46.576Z,6.30
2023-03-10T16:41:15.037Z,6.31
2023-03-10T16:43:44.388Z,6.56
2023-03-10T16:46:14.413Z,6.58
2023-03-10T16:48:43.828Z,6.40
2023-03-10T16:51:26.840Z,6.32
2023-03-10T16:53:57.698Z,6.38
2023-03-10T16:56:26.599Z,6.38
2023-03-10T16:58:56.920Z,6.44
2023-03-10T17:01:25.070Z,6.38
2023-03-10T17:03:53.255Z,6.38
2023-03-10T17:06:23.350Z,6.40
2023-03-10T17:08:52.552Z,6.21
2023-03-10T17:11:22.852Z,6.31
2023-03-10T17:13:53.451Z,6.21
2023-03-10T17:16:28.113Z,6.32
2023-03-10T17:18:57.189Z,6.12
2023-03-10T17:21:26.565Z,6.10
2023-03-10T17:23:54.602Z,6.07
2023-03-10T17:26:23.081Z,5.56
2023-03-10T17:28:52.392Z,5.92
2023-03-10T17:31:26.983Z,5.80
2023-03-10T17:33:56.312Z,5.89
2023-03-10T17:36:24.542Z,5.82
2023-03-10T17:38:53.586Z,5.70
2023-03-10T17:41:21.381Z,5.65
2023-03-10T17:43:49.530Z,4.89
2023-03-10T17:46:19.651Z,5.55
2023-03-10T17:48:49.035Z,5.68
2023-03-10T17:51:17.858Z,5.69
2023-03-10T17:53:46.159Z,5.57
2023-03-10T17:56:16.114Z,5.42
2023-03-10T17:58:44.231Z,5.43
2023-03-10T18:01:13.934Z,5.22
2023-03-10T18:03:42.661Z,5.18
2023-03-10T18:06:16.772Z,5.21
2023-03-10T18:08:44.953Z,5.34
2023-03-10T18:11:14.333Z,5.22
2023-03-10T18:13:42.423Z,5.18
2023-03-10T18:16:16.834Z,5.27
2023-03-10T18:18:45.243Z,5.20
2023-03-10T18:21:15.578Z,5.24
2023-03-10T18:23:43.626Z,5.25
2023-03-10T18:26:14.013Z,5.34
2023-03-10T18:28:41.986Z,5.26
2023-03-10T18:31:11.342Z,5.22
2023-03-10T18:33:39.258Z,5.35
2023-03-10T18:36:08.707Z,5.36
2023-03-10T18:38:37.873Z,5.42
2023-03-10T18:41:05.995Z,5.52
2023-03-10T18:43:34.510Z,5.67
2023-03-10T18:46:02.519Z,5.73
2023-03-10T18:48:30.433Z,5.65
2023-03-10T18:51:00.381Z,5.68
2023-03-10T18:53:28.870Z,5.65
2023-03-10T18:55:59.880Z,5.52
2023-03-10T18:58:29.824Z,5.28
2023-03-10T19:00:59.069Z,5.20
2023-03-10T19:03:29.515Z,4.97
2023-03-10T19:05:57.910Z,4.60
2023-03-10T19:08:27.169Z,4.42
2023-03-10T19:10:56.606Z,4.15
2023-03-10T19:13:27.755Z,4.08
2023-03-10T19:15:56.124Z,3.91
2023-03-10T19:18:24.381Z,3.61
2023-03-10T19:20:54.358Z,3.40
2023-03-10T19:23:22.213Z,2.85
2023-03-10T19:25:49.957Z,2.61
2023-03-10T19:28:17.849Z,2.11
2023-03-10T19:30:47.439Z,1.97
2023-03-10T19:33:15.343Z,1.66
2023-03-10T19:35:43.192Z,1.66
2023-03-10T19:38:11.056Z,1.60
2023-03-10T19:40:39.196Z,1.57
2023-03-10T19:43:07.016Z,1.45
2023-03-10T19:45:34.917Z,1.44
2023-03-10T19:48:04.039Z,1.30
2023-03-10T19:50:31.883Z,1.18
2023-03-10T19:52:59.698Z,1.11
2023-03-10T19:55:27.638Z,1.01
2023-03-10T19:57:57.065Z,1.01
2023-03-10T20:00:30.896Z,1.05
2023-03-10T20:02:59.452Z,0.80
2023-03-10T20:05:28.852Z,1.02
2023-03-10T20:07:56.785Z,0.89
2023-03-10T20:10:24.741Z,0.92
2023-03-10T20:12:52.654Z,1.00
2023-03-10T20:15:20.787Z,1.04
2023-03-10T20:17:48.704Z,2.99
2023-03-10T20:20:20.195Z,3.28
2023-03-10T20:22:50.878Z,2.73
2023-03-10T20:25:21.121Z,2.91
2023-03-10T20:27:50.853Z,2.87
2023-03-10T20:30:20.908Z,2.89
2023-03-10T20:32:48.747Z,2.54
2023-03-10T20:35:17.705Z,2.61
2023-03-10T20:37:45.609Z,2.55
2023-03-10T20:40:16.765Z,2.37
2023-03-10T20:42:44.670Z,2.46
2023-03-10T20:45:12.829Z,2.48
2023-03-10T20:47:40.761Z,2.44
2023-03-10T20:50:11.777Z,2.38
2023-03-10T20:52:41.978Z,2.27
2023-03-10T20:55:13.752Z,2.32
2023-03-10T20:57:43.065Z,2.39
2023-03-10T21:00:12.467Z,2.19
2023-03-10T21:02:40.626Z,2.32
2023-03-10T21:05:09.235Z,2.32
2023-03-10T21:07:37.197Z,2.13
2023-03-10T21:10:05.828Z,2.27
2023-03-10T21:12:33.921Z,2.32
2023-03-10T21:15:03.251Z,2.22
2023-03-10T21:17:31.181Z,2.32
2023-03-10T21:19:59.086Z,2.17
2023-03-10T21:22:30.314Z,0.98
2023-03-10T21:24:58.270Z,1.92
2023-03-10T21:27:27.506Z,2.18
2023-03-10T21:29:55.887Z,2.23
2023-03-10T21:32:26.898Z,2.20
2023-03-10T21:34:55.056Z,2.07
2023-03-10T21:37:23.030Z,1.81
2023-03-10T21:39:50.916Z,2.22
2023-03-10T21:42:18.741Z,2.27
2023-03-10T21:44:47.969Z,1.53
2023-03-10T21:47:16.392Z,2.27
2023-03-10T21:49:45.635Z,2.29
2023-03-10T21:52:14.075Z,2.24
2023-03-10T21:54:42.961Z,2.32
2023-03-10T21:57:10.902Z,2.20
2023-03-10T21:59:39.106Z,2.27
2023-03-10T22:02:08.224Z,2.24
2023-03-10T22:04:36.112Z,2.36
2023-03-10T22:07:05.389Z,2.39
2023-03-10T22:09:33.276Z,2.61
2023-03-10T22:12:01.163Z,2.55
2023-03-10T22:14:29.066Z,2.42
2023-03-10T22:16:57.053Z,1.45
2023-03-10T22:19:24.924Z,3.13
2023-03-10T22:21:52.828Z,2.99
2023-03-10T22:24:22.087Z,2.89
2023-03-10T22:26:49.907Z,2.75
2023-03-10T22:29:17.826Z,2.63
2023-03-10T22:31:45.734Z,2.78
2023-03-10T22:34:13.591Z,2.83
2023-03-10T22:36:41.468Z,2.61
2023-03-10T22:39:09.287Z,2.40
2023-03-10T22:41:38.970Z,2.62
2023-03-10T22:44:06.957Z,2.49
2023-03-10T22:46:34.859Z,2.71
2023-03-10T22:49:02.878Z,2.56
2023-03-10T22:51:30.836Z,2.67
2023-03-10T22:53:58.725Z,1.83
2023-03-10T22:56:26.620Z,2.52
2023-03-10T22:58:55.953Z,2.45
2023-03-10T23:01:24.324Z,2.58
2023-03-10T23:03:52.214Z,2.73
2023-03-10T23:06:20.376Z,2.90
2023-03-10T23:08:48.573Z,2.94
2023-03-10T23:11:16.700Z,2.54
2023-03-10T23:13:44.699Z,2.70
2023-03-10T23:16:14.041Z,2.86
2023-03-10T23:18:42.028Z,2.70
2023-03-10T23:21:09.896Z,2.11
2023-03-10T23:23:39.229Z,2.76
2023-03-10T23:26:07.214Z,2.77
2023-03-10T23:28:35.145Z,2.83
2023-03-10T23:31:03.048Z,2.41
2023-03-10T23:33:32.451Z,2.95
2023-03-10T23:36:00.377Z,3.13
2023-03-10T23:38:28.710Z,2.90
2023-03-10T23:40:56.814Z,2.29
2023-03-10T23:43:24.946Z,2.78
2023-03-10T23:45:53.002Z,2.78
2023-03-10T23:48:21.128Z,2.56
2023-03-10T23:50:50.768Z,2.72
2023-03-10T23:53:21.091Z,2.89
2023-03-10T23:55:49.649Z,1.70
2023-03-10T23:58:19.300Z,2.83
